sensor_id;sensor_type;location;lat;lon;timestamp;pressure;altitude;pressure_sealevel;temperature;humidity
9077;BME280;4574;51.072;17.174;2023-05-29T00:01:58;100386.25;;;14.13;80.72
9077;BME280;4574;51.072;17.174;2023-05-29T00:04:28;100384.59;;;14.12;80.78
9077;BME280;4574;51.072;17.174;2023-05-29T00:06:57;100379.91;;;14.06;80.81
9077;BME280;4574;51.072;17.174;2023-05-29T00:09:26;100378.59;;;14.02;80.96
9077;BME280;4574;51.072;17.174;2023-05-29T00:11:55;100381.72;;;13.97;81.33
9077;BME280;4574;51.072;17.174;2023-05-29T00:14:26;100378.56;;;13.94;82.24
9077;BME280;4574;51.072;17.174;2023-05-29T00:17:00;100374.72;;;13.88;81.96
9077;BME280;4574;51.072;17.174;2023-05-29T00:19:31;100376.91;;;13.85;81.71
9077;BME280;4574;51.072;17.174;2023-05-29T00:21:59;100390.66;;;13.80;82.53
9077;BME280;4574;51.072;17.174;2023-05-29T00:24:28;100386.53;;;13.78;82.60
9077;BME280;4574;51.072;17.174;2023-05-29T00:26:57;100380.19;;;13.71;83.27
9077;BME280;4574;51.072;17.174;2023-05-29T00:29:25;100353.88;;;13.60;82.88
9077;BME280;4574;51.072;17.174;2023-05-29T00:31:54;100370.19;;;13.65;83.28
9077;BME280;4574;51.072;17.174;2023-05-29T00:34:23;100366.03;;;13.62;83.49
9077;BME280;4574;51.072;17.174;2023-05-29T00:36:53;100375.47;;;13.57;82.90
9077;BME280;4574;51.072;17.174;2023-05-29T00:39:23;100369.78;;;13.52;83.20
9077;BME280;4574;51.072;17.174;2023-05-29T00:41:51;100373.78;;;13.48;83.04
9077;BME280;4574;51.072;17.174;2023-05-29T00:44:20;100362.63;;;13.44;83.27
9077;BME280;4574;51.072;17.174;2023-05-29T00:46:52;100359.47;;;13.41;83.76
9077;BME280;4574;51.072;17.174;2023-05-29T00:49:22;100359.09;;;13.36;83.88
9077;BME280;4574;51.072;17.174;2023-05-29T00:51:54;100367.25;;;13.35;84.15
9077;BME280;4574;51.072;17.174;2023-05-29T00:54:26;100370.38;;;13.30;84.42
9077;BME280;4574;51.072;17.174;2023-05-29T00:56:57;100365.38;;;13.27;83.96
9077;BME280;4574;51.072;17.174;2023-05-29T00:59:26;100360.41;;;13.24;84.84
9077;BME280;4574;51.072;17.174;2023-05-29T01:01:57;100357.38;;;13.19;86.15
9077;BME280;4574;51.072;17.174;2023-05-29T01:04:27;100364.69;;;13.17;86.24
9077;BME280;4574;51.072;17.174;2023-05-29T01:06:57;100359.88;;;13.13;85.95
9077;BME280;4574;51.072;17.174;2023-05-29T01:09:26;100365.63;;;13.08;86.10
9077;BME280;4574;51.072;17.174;2023-05-29T01:12:03;100362.81;;;13.02;87.40
9077;BME280;4574;51.072;17.174;2023-05-29T01:14:49;100377.22;;;12.99;88.87
9077;BME280;4574;51.072;17.174;2023-05-29T01:17:26;100370.56;;;12.95;90.74
9077;BME280;4574;51.072;17.174;2023-05-29T01:20:10;100374.81;;;12.88;90.57
9077;BME280;4574;51.072;17.174;2023-05-29T01:22:58;100371.78;;;12.83;90.62
9077;BME280;4574;51.072;17.174;2023-05-29T01:25:46;100376.59;;;12.80;89.56
9077;BME280;4574;51.072;17.174;2023-05-29T01:28:21;100373.41;;;12.76;90.57
9077;BME280;4574;51.072;17.174;2023-05-29T01:30:54;100378.03;;;12.74;91.01
9077;BME280;4574;51.072;17.174;2023-05-29T01:33:26;100371.38;;;12.70;90.33
9077;BME280;4574;51.072;17.174;2023-05-29T01:35:54;100371.81;;;12.66;89.88
9077;BME280;4574;51.072;17.174;2023-05-29T01:38:23;100364.34;;;12.61;90.57
9077;BME280;4574;51.072;17.174;2023-05-29T01:40:52;100374.44;;;12.58;91.12
9077;BME280;4574;51.072;17.174;2023-05-29T01:43:25;100369.59;;;12.53;92.46
9077;BME280;4574;51.072;17.174;2023-05-29T01:45:54;100373.69;;;12.48;93.40
9077;BME280;4574;51.072;17.174;2023-05-29T01:48:23;100365.91;;;12.46;92.43
9077;BME280;4574;51.072;17.174;2023-05-29T01:50:53;100359.38;;;12.41;92.58
9077;BME280;4574;51.072;17.174;2023-05-29T01:53:22;100368.31;;;12.40;92.63
9077;BME280;4574;51.072;17.174;2023-05-29T01:55:51;100360.84;;;12.35;92.59
9077;BME280;4574;51.072;17.174;2023-05-29T01:58:20;100354.47;;;12.28;92.08
9077;BME280;4574;51.072;17.174;2023-05-29T02:00:51;100354.19;;;12.31;93.09
9077;BME280;4574;51.072;17.174;2023-05-29T02:03:21;100358.13;;;12.27;93.96
9077;BME280;4574;51.072;17.174;2023-05-29T02:05:50;100363.75;;;12.24;94.36
9077;BME280;4574;51.072;17.174;2023-05-29T02:08:19;100362.38;;;12.20;95.15
9077;BME280;4574;51.072;17.174;2023-05-29T02:10:47;100357.38;;;12.17;93.82
9077;BME280;4574;51.072;17.174;2023-05-29T02:13:16;100354.34;;;12.12;93.31
9077;BME280;4574;51.072;17.174;2023-05-29T02:15:45;100364.97;;;12.12;94.04
9077;BME280;4574;51.072;17.174;2023-05-29T02:18:15;100361.94;;;12.07;94.22
9077;BME280;4574;51.072;17.174;2023-05-29T02:20:46;100364.91;;;12.04;95.56
9077;BME280;4574;51.072;17.174;2023-05-29T02:23:15;100358.91;;;12.02;95.58
9077;BME280;4574;51.072;17.174;2023-05-29T02:25:44;100357.38;;;12.00;96.15
9077;BME280;4574;51.072;17.174;2023-05-29T02:28:13;100352.53;;;11.96;95.11
9077;BME280;4574;51.072;17.174;2023-05-29T02:30:42;100354.34;;;11.95;95.01
9077;BME280;4574;51.072;17.174;2023-05-29T02:33:10;100356.19;;;11.95;94.46
9077;BME280;4574;51.072;17.174;2023-05-29T02:35:40;100358.44;;;11.90;96.49
9077;BME280;4574;51.072;17.174;2023-05-29T02:38:09;100366.56;;;11.88;94.74
9077;BME280;4574;51.072;17.174;2023-05-29T02:40:37;100350.41;;;11.82;95.26
9077;BME280;4574;51.072;17.174;2023-05-29T02:43:07;100357.66;;;11.80;94.78
9077;BME280;4574;51.072;17.174;2023-05-29T02:45:36;100367.47;;;11.79;94.76
9077;BME280;4574;51.072;17.174;2023-05-29T02:48:05;100352.66;;;11.77;95.90
9077;BME280;4574;51.072;17.174;2023-05-29T02:50:34;100358.81;;;11.77;95.37
9077;BME280;4574;51.072;17.174;2023-05-29T02:53:05;100362.47;;;11.76;94.82
9077;BME280;4574;51.072;17.174;2023-05-29T02:55:33;100357.44;;;11.73;95.77
9077;BME280;4574;51.072;17.174;2023-05-29T02:58:03;100350.63;;;11.71;96.63
9077;BME280;4574;51.072;17.174;2023-05-29T03:00:31;100345.78;;;11.66;96.53
9077;BME280;4574;51.072;17.174;2023-05-29T03:03:00;100354.41;;;11.68;96.69
9077;BME280;4574;51.072;17.174;2023-05-29T03:05:30;100359.19;;;11.65;96.99
9077;BME280;4574;51.072;17.174;2023-05-29T03:07:58;100354.16;;;11.62;96.37
9077;BME280;4574;51.072;17.174;2023-05-29T03:10:28;100350.84;;;11.60;96.28
9077;BME280;4574;51.072;17.174;2023-05-29T03:12:57;100353.66;;;11.58;96.20
9077;BME280;4574;51.072;17.174;2023-05-29T03:15:25;100366.06;;;11.58;96.67
9077;BME280;4574;51.072;17.174;2023-05-29T03:17:54;100360.34;;;11.53;96.97
9077;BME280;4574;51.072;17.174;2023-05-29T03:20:23;100363.44;;;11.48;96.00
9077;BME280;4574;51.072;17.174;2023-05-29T03:22:53;100368.59;;;11.50;96.27
9077;BME280;4574;51.072;17.174;2023-05-29T03:25:22;100370.72;;;11.46;96.15
9077;BME280;4574;51.072;17.174;2023-05-29T03:27:53;100374.34;;;11.45;96.38
9077;BME280;4574;51.072;17.174;2023-05-29T03:30:21;100368.50;;;11.42;96.30
9077;BME280;4574;51.072;17.174;2023-05-29T03:32:50;100369.34;;;11.42;95.86
9077;BME280;4574;51.072;17.174;2023-05-29T03:35:18;100361.31;;;11.34;96.97
9077;BME280;4574;51.072;17.174;2023-05-29T03:37:47;100374.78;;;11.41;96.35
9077;BME280;4574;51.072;17.174;2023-05-29T03:40:16;100378.72;;;11.37;96.25
9077;BME280;4574;51.072;17.174;2023-05-29T03:42:44;100391.66;;;11.40;96.53
9077;BME280;4574;51.072;17.174;2023-05-29T03:45:14;100388.34;;;11.38;97.18
9077;BME280;4574;51.072;17.174;2023-05-29T03:47:43;100395.31;;;11.39;96.80
9077;BME280;4574;51.072;17.174;2023-05-29T03:50:11;100397.13;;;11.38;97.13
9077;BME280;4574;51.072;17.174;2023-05-29T03:52:42;100393.63;;;11.38;97.45
9077;BME280;4574;51.072;17.174;2023-05-29T03:55:11;100393.63;;;11.38;98.26
9077;BME280;4574;51.072;17.174;2023-05-29T03:57:41;100390.00;;;11.39;98.37
9077;BME280;4574;51.072;17.174;2023-05-29T04:00:11;100391.66;;;11.40;99.05
9077;BME280;4574;51.072;17.174;2023-05-29T04:02:41;100393.50;;;11.39;99.03
9077;BME280;4574;51.072;17.174;2023-05-29T04:05:10;100399.50;;;11.41;99.54
9077;BME280;4574;51.072;17.174;2023-05-29T04:07:40;100394.03;;;11.43;100.00
9077;BME280;4574;51.072;17.174;2023-05-29T04:10:09;100392.06;;;11.45;99.26
9077;BME280;4574;51.072;17.174;2023-05-29T04:12:38;100393.72;;;11.46;99.32
9077;BME280;4574;51.072;17.174;2023-05-29T04:15:08;100394.41;;;11.48;99.63
9077;BME280;4574;51.072;17.174;2023-05-29T04:17:37;100395.09;;;11.50;99.92
9077;BME280;4574;51.072;17.174;2023-05-29T04:20:09;100396.63;;;11.52;99.98
9077;BME280;4574;51.072;17.174;2023-05-29T04:22:38;100406.13;;;11.55;100.00
9077;BME280;4574;51.072;17.174;2023-05-29T04:25:07;100407.78;;;11.56;100.00
9077;BME280;4574;51.072;17.174;2023-05-29T04:27:36;100404.84;;;11.59;100.00
9077;BME280;4574;51.072;17.174;2023-05-29T04:30:06;100410.84;;;11.61;100.00
9077;BME280;4574;51.072;17.174;2023-05-29T04:32:35;100411.22;;;11.66;100.00
9077;BME280;4574;51.072;17.174;2023-05-29T04:35:04;100423.38;;;11.68;100.00
9077;BME280;4574;51.072;17.174;2023-05-29T04:37:35;100413.28;;;11.72;100.00
9077;BME280;4574;51.072;17.174;2023-05-29T04:40:07;100422.47;;;11.77;100.00
9077;BME280;4574;51.072;17.174;2023-05-29T04:42:41;100432.47;;;11.83;100.00
9077;BME280;4574;51.072;17.174;2023-05-29T04:45:11;100423.25;;;11.87;99.98
9077;BME280;4574;51.072;17.174;2023-05-29T04:47:41;100412.94;;;11.84;100.00
9077;BME280;4574;51.072;17.174;2023-05-29T04:50:14;100428.50;;;11.97;99.68
9077;BME280;4574;51.072;17.174;2023-05-29T04:52:45;100422.59;;;12.02;99.57
9077;BME280;4574;51.072;17.174;2023-05-29T04:55:14;100416.69;;;12.08;100.00
9077;BME280;4574;51.072;17.174;2023-05-29T04:57:43;100414.09;;;12.16;99.69
9077;BME280;4574;51.072;17.174;2023-05-29T05:00:13;100412.81;;;12.20;98.46
9077;BME280;4574;51.072;17.174;2023-05-29T05:02:43;100419.19;;;12.27;97.78
9077;BME280;4574;51.072;17.174;2023-05-29T05:05:12;100415.91;;;12.33;99.12
9077;BME280;4574;51.072;17.174;2023-05-29T05:07:41;100419.94;;;12.37;98.80
9077;BME280;4574;51.072;17.174;2023-05-29T05:10:11;100425.31;;;12.45;98.81
9077;BME280;4574;51.072;17.174;2023-05-29T05:12:40;100420.50;;;12.49;99.18
9077;BME280;4574;51.072;17.174;2023-05-29T05:15:09;100426.03;;;12.55;98.78
9077;BME280;4574;51.072;17.174;2023-05-29T05:17:38;100429.59;;;12.64;98.63
9077;BME280;4574;51.072;17.174;2023-05-29T05:20:08;100422.53;;;12.72;99.80
9077;BME280;4574;51.072;17.174;2023-05-29T05:22:37;100423.06;;;12.76;97.91
9077;BME280;4574;51.072;17.174;2023-05-29T05:25:06;100422.63;;;12.88;98.92
9077;BME280;4574;51.072;17.174;2023-05-29T05:27:38;100434.34;;;12.95;98.05
9077;BME280;4574;51.072;17.174;2023-05-29T05:30:08;100432.56;;;13.04;99.49
9077;BME280;4574;51.072;17.174;2023-05-29T05:32:36;100431.63;;;13.13;97.70
9077;BME280;4574;51.072;17.174;2023-05-29T05:35:05;100429.84;;;13.21;98.60
9077;BME280;4574;51.072;17.174;2023-05-29T05:37:35;100433.25;;;13.39;98.04
9077;BME280;4574;51.072;17.174;2023-05-29T05:40:05;100436.13;;;13.45;96.19
9077;BME280;4574;51.072;17.174;2023-05-29T05:42:35;100428.94;;;13.46;95.37
9077;BME280;4574;51.072;17.174;2023-05-29T05:45:06;100437.59;;;13.48;94.81
9077;BME280;4574;51.072;17.174;2023-05-29T05:47:35;100433.31;;;13.55;94.97
9077;BME280;4574;51.072;17.174;2023-05-29T05:50:04;100430.84;;;13.61;95.24
9077;BME280;4574;51.072;17.174;2023-05-29T05:52:33;100439.09;;;13.84;97.87
9077;BME280;4574;51.072;17.174;2023-05-29T05:55:02;100435.47;;;14.01;94.96
9077;BME280;4574;51.072;17.174;2023-05-29T05:57:31;100429.56;;;14.23;92.93
9077;BME280;4574;51.072;17.174;2023-05-29T06:00:01;100431.69;;;14.27;92.52
9077;BME280;4574;51.072;17.174;2023-05-29T06:02:33;100438.69;;;14.28;92.86
9077;BME280;4574;51.072;17.174;2023-05-29T06:05:03;100432.56;;;14.28;92.96
9077;BME280;4574;51.072;17.174;2023-05-29T06:07:34;100440.88;;;14.33;93.55
9077;BME280;4574;51.072;17.174;2023-05-29T06:10:04;100442.06;;;14.62;94.28
9077;BME280;4574;51.072;17.174;2023-05-29T06:12:33;100438.72;;;14.92;90.72
9077;BME280;4574;51.072;17.174;2023-05-29T06:15:03;100446.50;;;15.09;88.99
9077;BME280;4574;51.072;17.174;2023-05-29T06:17:34;100442.00;;;15.10;88.54
9077;BME280;4574;51.072;17.174;2023-05-29T06:20:03;100452.13;;;15.22;88.05
9077;BME280;4574;51.072;17.174;2023-05-29T06:22:36;100444.16;;;15.38;87.49
9077;BME280;4574;51.072;17.174;2023-05-29T06:25:05;100441.53;;;15.61;87.97
9077;BME280;4574;51.072;17.174;2023-05-29T06:27:36;100446.09;;;15.83;86.66
9077;BME280;4574;51.072;17.174;2023-05-29T06:30:05;100451.81;;;16.10;85.80
9077;BME280;4574;51.072;17.174;2023-05-29T06:32:36;100448.19;;;16.03;86.31
9077;BME280;4574;51.072;17.174;2023-05-29T06:35:05;100446.50;;;16.02;87.20
9077;BME280;4574;51.072;17.174;2023-05-29T06:37:34;100448.28;;;16.09;86.29
9077;BME280;4574;51.072;17.174;2023-05-29T06:40:03;100451.16;;;16.08;86.52
9077;BME280;4574;51.072;17.174;2023-05-29T06:42:32;100451.94;;;16.16;87.57
9077;BME280;4574;51.072;17.174;2023-05-29T06:45:01;100451.41;;;16.21;86.51
9077;BME280;4574;51.072;17.174;2023-05-29T06:47:30;100450.34;;;16.30;86.15
9077;BME280;4574;51.072;17.174;2023-05-29T06:50:00;100449.84;;;16.34;87.65
9077;BME280;4574;51.072;17.174;2023-05-29T06:52:29;100460.94;;;16.46;86.70
9077;BME280;4574;51.072;17.174;2023-05-29T06:55:01;100452.88;;;16.54;86.55
9077;BME280;4574;51.072;17.174;2023-05-29T06:57:30;100453.81;;;16.61;85.10
9077;BME280;4574;51.072;17.174;2023-05-29T06:59:59;100457.44;;;16.68;84.82
9077;BME280;4574;51.072;17.174;2023-05-29T07:02:28;100459.97;;;16.84;84.64
9077;BME280;4574;51.072;17.174;2023-05-29T07:04:57;100468.75;;;16.92;83.94
9077;BME280;4574;51.072;17.174;2023-05-29T07:07:27;100471.47;;;17.07;84.06
9077;BME280;4574;51.072;17.174;2023-05-29T07:09:56;100463.81;;;17.18;83.51
9077;BME280;4574;51.072;17.174;2023-05-29T07:12:25;100465.81;;;17.39;82.26
9077;BME280;4574;51.072;17.174;2023-05-29T07:14:53;100463.69;;;17.49;81.57
9077;BME280;4574;51.072;17.174;2023-05-29T07:17:22;100468.00;;;17.64;81.21
9077;BME280;4574;51.072;17.174;2023-05-29T07:19:51;100479.09;;;17.75;79.90
9077;BME280;4574;51.072;17.174;2023-05-29T07:22:21;100470.75;;;17.99;78.10
9077;BME280;4574;51.072;17.174;2023-05-29T07:24:51;100471.09;;;18.25;77.25
9077;BME280;4574;51.072;17.174;2023-05-29T07:27:20;100474.53;;;18.40;75.63
9077;BME280;4574;51.072;17.174;2023-05-29T07:29:48;100472.06;;;18.60;75.94
9077;BME280;4574;51.072;17.174;2023-05-29T07:32:17;100461.00;;;18.90;73.07
9077;BME280;4574;51.072;17.174;2023-05-29T07:34:46;100473.50;;;19.25;72.20
9077;BME280;4574;51.072;17.174;2023-05-29T07:37:16;100472.78;;;19.44;71.42
9077;BME280;4574;51.072;17.174;2023-05-29T07:39:46;100472.25;;;19.55;71.62
9077;BME280;4574;51.072;17.174;2023-05-29T07:42:16;100469.47;;;19.76;66.26
9077;BME280;4574;51.072;17.174;2023-05-29T07:44:45;100474.88;;;19.82;68.07
9077;BME280;4574;51.072;17.174;2023-05-29T07:47:15;100462.66;;;19.80;66.93
9077;BME280;4574;51.072;17.174;2023-05-29T07:49:43;100474.56;;;20.05;65.75
9077;BME280;4574;51.072;17.174;2023-05-29T07:52:12;100485.19;;;20.19;64.84
9077;BME280;4574;51.072;17.174;2023-05-29T07:54:40;100473.00;;;20.23;64.58
9077;BME280;4574;51.072;17.174;2023-05-29T07:57:09;100480.22;;;20.23;64.47
9077;BME280;4574;51.072;17.174;2023-05-29T07:59:41;100476.94;;;20.27;63.48
9077;BME280;4574;51.072;17.174;2023-05-29T08:02:09;100476.78;;;20.48;59.43
9077;BME280;4574;51.072;17.174;2023-05-29T08:04:39;100468.56;;;20.62;58.34
9077;BME280;4574;51.072;17.174;2023-05-29T08:07:09;100473.31;;;20.73;57.52
9077;BME280;4574;51.072;17.174;2023-05-29T08:09:43;100478.97;;;20.91;54.17
9077;BME280;4574;51.072;17.174;2023-05-29T08:12:12;100481.03;;;21.02;51.18
9077;BME280;4574;51.072;17.174;2023-05-29T08:14:42;100492.59;;;21.16;53.93
9077;BME280;4574;51.072;17.174;2023-05-29T08:17:10;100486.41;;;21.28;52.55
9077;BME280;4574;51.072;17.174;2023-05-29T08:19:39;100491.75;;;21.41;48.33
9077;BME280;4574;51.072;17.174;2023-05-29T08:22:11;100484.09;;;21.51;50.75
9077;BME280;4574;51.072;17.174;2023-05-29T08:24:40;100481.59;;;21.56;51.48
9077;BME280;4574;51.072;17.174;2023-05-29T08:27:09;100481.81;;;21.68;51.16
9077;BME280;4574;51.072;17.174;2023-05-29T08:29:38;100476.75;;;21.84;50.24
9077;BME280;4574;51.072;17.174;2023-05-29T08:32:08;100475.44;;;22.06;46.66
9077;BME280;4574;51.072;17.174;2023-05-29T08:34:36;100483.31;;;22.14;46.27
9077;BME280;4574;51.072;17.174;2023-05-29T08:37:09;100484.91;;;22.28;45.79
9077;BME280;4574;51.072;17.174;2023-05-29T08:39:39;100490.28;;;22.28;42.89
9077;BME280;4574;51.072;17.174;2023-05-29T08:42:12;100483.63;;;22.37;43.96
9077;BME280;4574;51.072;17.174;2023-05-29T08:44:44;100484.59;;;22.49;44.25
9077;BME280;4574;51.072;17.174;2023-05-29T08:47:17;100493.47;;;22.56;44.92
9077;BME280;4574;51.072;17.174;2023-05-29T08:49:54;100496.34;;;22.61;42.37
9077;BME280;4574;51.072;17.174;2023-05-29T08:52:24;100497.34;;;22.66;42.86
9077;BME280;4574;51.072;17.174;2023-05-29T08:54:54;100491.69;;;22.74;44.67
9077;BME280;4574;51.072;17.174;2023-05-29T08:57:23;100484.66;;;22.98;43.53
9077;BME280;4574;51.072;17.174;2023-05-29T08:59:55;100489.88;;;22.99;41.46
9077;BME280;4574;51.072;17.174;2023-05-29T09:02:26;100492.28;;;23.07;43.86
9077;BME280;4574;51.072;17.174;2023-05-29T09:04:55;100484.31;;;23.18;42.58
9077;BME280;4574;51.072;17.174;2023-05-29T09:07:26;100492.41;;;23.18;42.34
9077;BME280;4574;51.072;17.174;2023-05-29T09:09:56;100486.72;;;23.26;42.79
9077;BME280;4574;51.072;17.174;2023-05-29T09:12:25;100485.09;;;23.43;44.44
9077;BME280;4574;51.072;17.174;2023-05-29T09:14:54;100474.28;;;23.43;41.55
9077;BME280;4574;51.072;17.174;2023-05-29T09:17:23;100484.81;;;23.51;40.99
9077;BME280;4574;51.072;17.174;2023-05-29T09:19:53;100477.56;;;23.52;42.44
9077;BME280;4574;51.072;17.174;2023-05-29T09:22:22;100476.50;;;23.53;41.28
9077;BME280;4574;51.072;17.174;2023-05-29T09:24:50;100490.53;;;23.61;42.01
9077;BME280;4574;51.072;17.174;2023-05-29T09:29:48;100492.94;;;23.69;43.42
9077;BME280;4574;51.072;17.174;2023-05-29T09:32:19;100485.72;;;23.63;41.88
9077;BME280;4574;51.072;17.174;2023-05-29T09:34:47;100489.72;;;23.85;43.49
9077;BME280;4574;51.072;17.174;2023-05-29T09:37:18;100484.34;;;23.97;43.19
9077;BME280;4574;51.072;17.174;2023-05-29T09:39:50;100497.25;;;24.13;42.28
9077;BME280;4574;51.072;17.174;2023-05-29T09:42:20;100490.78;;;24.14;43.39
9077;BME280;4574;51.072;17.174;2023-05-29T09:44:52;100497.97;;;24.08;42.50
9077;BME280;4574;51.072;17.174;2023-05-29T09:47:21;100491.31;;;24.22;42.11
9077;BME280;4574;51.072;17.174;2023-05-29T09:49:50;100482.44;;;24.33;42.89
9077;BME280;4574;51.072;17.174;2023-05-29T09:52:22;100493.75;;;24.42;42.18
9077;BME280;4574;51.072;17.174;2023-05-29T09:54:51;100479.28;;;24.65;42.31
9077;BME280;4574;51.072;17.174;2023-05-29T09:57:20;100483.59;;;24.84;43.18
9077;BME280;4574;51.072;17.174;2023-05-29T09:59:52;100494.44;;;24.96;41.73
9077;BME280;4574;51.072;17.174;2023-05-29T10:02:21;100469.59;;;24.99;41.34
9077;BME280;4574;51.072;17.174;2023-05-29T10:04:49;100467.47;;;25.01;41.68
9077;BME280;4574;51.072;17.174;2023-05-29T10:07:26;100463.81;;;25.07;39.86
9077;BME280;4574;51.072;17.174;2023-05-29T10:09:59;100478.78;;;24.98;37.80
9077;BME280;4574;51.072;17.174;2023-05-29T10:12:31;100471.16;;;25.18;38.93
9077;BME280;4574;51.072;17.174;2023-05-29T10:15:02;100471.31;;;25.34;37.68
9077;BME280;4574;51.072;17.174;2023-05-29T10:17:34;100471.53;;;25.33;36.85
9077;BME280;4574;51.072;17.174;2023-05-29T10:20:05;100477.66;;;25.28;37.80
9077;BME280;4574;51.072;17.174;2023-05-29T10:22:40;100477.41;;;25.30;36.82
9077;BME280;4574;51.072;17.174;2023-05-29T10:25:11;100464.59;;;25.25;37.06
9077;BME280;4574;51.072;17.174;2023-05-29T10:27:41;100469.75;;;25.50;36.89
9077;BME280;4574;51.072;17.174;2023-05-29T10:30:17;100472.56;;;25.66;36.74
9077;BME280;4574;51.072;17.174;2023-05-29T10:33:04;100469.16;;;25.59;36.59
9077;BME280;4574;51.072;17.174;2023-05-29T10:35:42;100470.34;;;25.75;37.09
9077;BME280;4574;51.072;17.174;2023-05-29T10:38:15;100473.25;;;26.07;37.37
9077;BME280;4574;51.072;17.174;2023-05-29T10:40:46;100463.84;;;25.87;36.69
9077;BME280;4574;51.072;17.174;2023-05-29T10:43:30;100457.63;;;26.14;36.09
9077;BME280;4574;51.072;17.174;2023-05-29T10:46:02;100459.72;;;26.24;36.66
9077;BME280;4574;51.072;17.174;2023-05-29T10:48:41;100465.19;;;26.40;35.47
9077;BME280;4574;51.072;17.174;2023-05-29T10:51:28;100454.63;;;26.27;35.85
9077;BME280;4574;51.072;17.174;2023-05-29T10:54:01;100453.94;;;26.20;34.92
9077;BME280;4574;51.072;17.174;2023-05-29T10:56:30;100454.63;;;26.27;37.05
9077;BME280;4574;51.072;17.174;2023-05-29T10:58:59;100460.66;;;26.29;34.97
9077;BME280;4574;51.072;17.174;2023-05-29T11:01:31;100455.97;;;26.69;34.78
9077;BME280;4574;51.072;17.174;2023-05-29T11:04:25;100460.84;;;27.00;34.28
9077;BME280;4574;51.072;17.174;2023-05-29T11:06:55;100449.34;;;26.93;34.28
9077;BME280;4574;51.072;17.174;2023-05-29T11:09:29;100456.81;;;26.70;35.13
9077;BME280;4574;51.072;17.174;2023-05-29T11:12:22;100453.69;;;26.94;35.27
9077;BME280;4574;51.072;17.174;2023-05-29T11:15:05;100450.97;;;26.94;34.60
9077;BME280;4574;51.072;17.174;2023-05-29T11:17:44;100449.03;;;27.23;33.91
9077;BME280;4574;51.072;17.174;2023-05-29T11:20:28;100433.06;;;27.10;33.88
9077;BME280;4574;51.072;17.174;2023-05-29T11:23:03;100443.69;;;27.11;33.30
9077;BME280;4574;51.072;17.174;2023-05-29T11:25:37;100438.88;;;27.35;34.59
9077;BME280;4574;51.072;17.174;2023-05-29T11:28:07;100445.81;;;27.63;35.44
9077;BME280;4574;51.072;17.174;2023-05-29T11:30:44;100445.00;;;28.01;34.74
9077;BME280;4574;51.072;17.174;2023-05-29T11:33:24;100450.56;;;28.32;35.10
9077;BME280;4574;51.072;17.174;2023-05-29T11:35:56;100452.41;;;28.53;33.77
9077;BME280;4574;51.072;17.174;2023-05-29T11:38:25;100443.97;;;28.55;34.96
9077;BME280;4574;51.072;17.174;2023-05-29T11:40:56;100451.50;;;28.69;33.11
9077;BME280;4574;51.072;17.174;2023-05-29T11:43:26;100451.22;;;28.71;33.92
9077;BME280;4574;51.072;17.174;2023-05-29T11:45:55;100445.63;;;28.56;33.42
9077;BME280;4574;51.072;17.174;2023-05-29T11:48:24;100450.34;;;28.39;33.68
9077;BME280;4574;51.072;17.174;2023-05-29T11:50:53;100445.94;;;28.59;32.03
9077;BME280;4574;51.072;17.174;2023-05-29T11:53:22;100444.03;;;28.60;31.90
9077;BME280;4574;51.072;17.174;2023-05-29T11:55:50;100434.38;;;28.78;33.04
9077;BME280;4574;51.072;17.174;2023-05-29T11:58:21;100440.38;;;29.07;33.16
9077;BME280;4574;51.072;17.174;2023-05-29T12:00:50;100440.00;;;29.30;31.86
9077;BME280;4574;51.072;17.174;2023-05-29T12:03:19;100430.47;;;29.27;32.83
9077;BME280;4574;51.072;17.174;2023-05-29T12:05:48;100435.31;;;29.20;33.42
9077;BME280;4574;51.072;17.174;2023-05-29T12:08:21;100436.03;;;29.06;33.32
9077;BME280;4574;51.072;17.174;2023-05-29T12:10:52;100427.53;;;28.45;31.11
9077;BME280;4574;51.072;17.174;2023-05-29T12:13:22;100435.41;;;28.73;33.38
9077;BME280;4574;51.072;17.174;2023-05-29T12:15:54;100421.94;;;28.87;32.20
9077;BME280;4574;51.072;17.174;2023-05-29T12:18:24;100429.34;;;29.23;32.47
9077;BME280;4574;51.072;17.174;2023-05-29T12:20:57;100413.13;;;29.07;30.81
9077;BME280;4574;51.072;17.174;2023-05-29T12:23:28;100415.31;;;29.46;32.54
9077;BME280;4574;51.072;17.174;2023-05-29T12:25:58;100426.31;;;29.61;30.95
9077;BME280;4574;51.072;17.174;2023-05-29T12:28:29;100414.84;;;29.59;30.67
9077;BME280;4574;51.072;17.174;2023-05-29T12:31:00;100411.13;;;29.34;30.90
9077;BME280;4574;51.072;17.174;2023-05-29T12:33:29;100414.38;;;29.72;31.83
9077;BME280;4574;51.072;17.174;2023-05-29T12:36:04;100403.59;;;30.02;31.40
9077;BME280;4574;51.072;17.174;2023-05-29T12:38:41;100402.78;;;30.07;31.21
9077;BME280;4574;51.072;17.174;2023-05-29T12:41:23;100401.81;;;29.71;30.80
9077;BME280;4574;51.072;17.174;2023-05-29T12:43:55;100399.22;;;29.50;30.34
9077;BME280;4574;51.072;17.174;2023-05-29T12:46:24;100403.28;;;28.43;31.85
9077;BME280;4574;51.072;17.174;2023-05-29T12:48:53;100390.09;;;28.62;31.54
9077;BME280;4574;51.072;17.174;2023-05-29T12:51:23;100395.00;;;28.91;32.01
9077;BME280;4574;51.072;17.174;2023-05-29T12:53:52;100393.22;;;29.06;31.96
9077;BME280;4574;51.072;17.174;2023-05-29T12:56:22;100398.72;;;28.27;32.51
9077;BME280;4574;51.072;17.174;2023-05-29T12:58:54;100401.03;;;27.92;32.94
9077;BME280;4574;51.072;17.174;2023-05-29T13:01:23;100389.75;;;27.79;31.81
9077;BME280;4574;51.072;17.174;2023-05-29T13:03:52;100399.91;;;28.10;32.78
9077;BME280;4574;51.072;17.174;2023-05-29T13:06:21;100398.31;;;28.14;32.18
9077;BME280;4574;51.072;17.174;2023-05-29T13:08:49;100401.94;;;28.46;33.20
9077;BME280;4574;51.072;17.174;2023-05-29T13:11:18;100387.59;;;28.86;31.66
9077;BME280;4574;51.072;17.174;2023-05-29T13:13:46;100381.56;;;29.21;32.41
9077;BME280;4574;51.072;17.174;2023-05-29T13:16:17;100386.13;;;29.52;31.84
9077;BME280;4574;51.072;17.174;2023-05-29T13:18:46;100384.00;;;29.64;31.76
9077;BME280;4574;51.072;17.174;2023-05-29T13:21:14;100385.56;;;29.03;30.78